createdAt,value
2018-08-07T00:06:01.665Z,78.96
2018-08-07T00:16:01.626Z,79.22
2018-08-07T00:21:01.704Z,79.90
2018-08-07T00:26:01.540Z,79.90
2018-08-07T00:36:01.616Z,80.73
2018-08-07T00:51:01.609Z,80.51
2018-08-07T01:06:01.615Z,81.19
2018-08-07T01:16:01.779Z,84.20
2018-08-07T01:31:01.634Z,84.74
2018-08-07T01:46:01.610Z,81.59
2018-08-07T01:51:01.548Z,81.39
2018-08-07T02:06:01.614Z,82.72
2018-08-07T02:16:01.623Z,80.81
2018-08-07T02:31:06.550Z,83.88
2018-08-07T02:46:01.602Z,82.61
2018-08-07T02:51:01.532Z,85.57
2018-08-07T02:56:01.544Z,85.57
2018-08-07T03:01:01.534Z,90.24
2018-08-07T03:06:01.515Z,90.24
2018-08-07T03:11:01.518Z,85.25
2018-08-07T03:21:01.538Z,84.99
2018-08-07T03:26:01.599Z,84.99
2018-08-07T03:31:01.550Z,87.13
2018-08-07T03:36:01.549Z,87.13
2018-08-07T03:51:01.564Z,83.45
2018-08-07T04:06:06.569Z,83.86
2018-08-07T04:22:01.539Z,83.36
2018-08-07T04:32:01.517Z,87.72
2018-08-07T04:42:01.600Z,89.41
2018-08-07T04:47:01.615Z,89.41
2018-08-07T04:52:01.548Z,86.58
2018-08-07T04:57:01.600Z,86.58
2018-08-07T05:02:01.541Z,87.88
2018-08-07T05:07:01.558Z,87.88
2018-08-07T05:12:01.527Z,93.26
2018-08-07T05:17:01.571Z,93.26
2018-08-07T05:22:01.555Z,88.54
2018-08-07T05:27:01.571Z,88.54
2018-08-07T05:32:01.576Z,88.84
2018-08-07T05:37:01.532Z,88.84
2018-08-07T05:43:01.571Z,87.74
2018-08-07T05:48:01.575Z,87.74
2018-08-07T05:53:06.573Z,84.46
2018-08-07T05:58:02.072Z,84.46
2018-08-07T06:03:01.586Z,79.05
2018-08-07T06:08:01.611Z,79.05
2018-08-07T06:13:01.553Z,71.55
2018-08-07T06:18:01.469Z,71.55
2018-08-07T06:23:01.680Z,67.71
2018-08-07T06:28:01.602Z,67.71
2018-08-07T06:33:01.596Z,59.54
2018-08-07T06:38:01.611Z,59.54
2018-08-07T06:43:01.960Z,57.54
2018-08-07T06:48:01.760Z,57.54
2018-08-07T06:54:01.715Z,55.89
2018-08-07T06:59:01.661Z,55.89
2018-08-07T07:04:01.552Z,54.93
2018-08-07T07:09:01.633Z,54.93
2018-08-07T07:14:01.575Z,51.89
2018-08-07T07:19:01.813Z,51.89
2018-08-07T07:24:01.681Z,52.06
2018-08-07T07:29:01.762Z,52.06
2018-08-07T07:34:01.786Z,49.79
2018-08-07T07:39:01.708Z,49.79
2018-08-07T07:44:01.672Z,49.17
2018-08-07T07:49:01.746Z,49.17
2018-08-07T07:54:02.062Z,47.18
2018-08-07T07:59:01.740Z,47.18
2018-08-07T08:04:01.651Z,47.02
2018-08-07T08:09:01.790Z,47.02
2018-08-07T08:14:01.659Z,43.85
2018-08-07T08:19:01.704Z,43.85
2018-08-07T08:24:01.712Z,43.62
2018-08-07T08:29:02.158Z,43.62
2018-08-07T08:34:01.671Z,41.37
2018-08-07T08:39:01.794Z,41.37
2018-08-07T08:44:01.674Z,41.42
2018-08-07T08:49:01.862Z,41.42
2018-08-07T08:54:01.915Z,41.05
2018-08-07T08:59:01.724Z,41.05
2018-08-07T09:04:01.717Z,40.30
2018-08-07T09:09:01.714Z,40.30
2018-08-07T09:14:01.661Z,39.00
2018-08-07T09:19:01.725Z,39.00
2018-08-07T09:24:01.662Z,38.36
2018-08-07T09:29:01.679Z,38.36
2018-08-07T09:34:01.636Z,35.75
2018-08-07T09:39:01.686Z,35.75
2018-08-07T09:44:01.685Z,34.36
2018-08-07T09:49:01.648Z,34.36
2018-08-07T09:54:01.613Z,34.19
2018-08-07T09:59:01.676Z,34.19
2018-08-07T10:04:01.618Z,31.90
2018-08-07T10:09:01.671Z,31.90
2018-08-07T10:14:01.619Z,31.98
2018-08-07T10:24:01.712Z,32.35
2018-08-07T10:29:01.674Z,32.35
2018-08-07T10:34:01.622Z,30.00
2018-08-07T10:39:01.682Z,30.00
2018-08-07T10:44:01.709Z,30.42
2018-08-07T10:49:01.687Z,30.42
2018-08-07T10:54:01.612Z,28.41
2018-08-07T10:59:01.699Z,28.41
2018-08-07T11:04:01.628Z,27.86
2018-08-07T11:09:01.674Z,27.86
2018-08-07T11:14:01.610Z,27.49
2018-08-07T11:29:01.978Z,28.40
2018-08-07T11:34:01.618Z,26.62
2018-08-07T11:39:01.638Z,26.62
2018-08-07T11:49:01.414Z,26.57
2018-08-07T11:54:01.613Z,26.41
2018-08-07T12:04:01.413Z,28.23
2018-08-07T12:14:01.629Z,26.83
2018-08-07T12:19:01.749Z,26.83
2018-08-07T12:24:01.618Z,28.46
2018-08-07T12:29:02.706Z,28.46
2018-08-07T12:34:01.678Z,28.71
2018-08-07T12:49:01.470Z,28.38
2018-08-07T12:54:01.608Z,28.51
2018-08-07T12:59:01.819Z,28.51
2018-08-07T13:09:01.737Z,27.65
2018-08-07T13:19:01.494Z,27.65
2018-08-07T13:29:01.784Z,29.24
2018-08-07T13:34:01.635Z,29.39
2018-08-07T13:39:01.702Z,29.39
2018-08-07T13:44:01.622Z,30.77
2018-08-07T13:59:01.693Z,30.10
2018-08-07T14:09:01.860Z,29.67
2018-08-07T14:19:01.414Z,30.29
2018-08-07T14:29:01.731Z,28.89
2018-08-07T14:34:01.615Z,30.40
2018-08-07T14:39:02.714Z,30.40
2018-08-07T14:49:01.550Z,30.17
2018-08-07T14:59:01.703Z,30.05
2018-08-07T15:14:01.710Z,30.72
2018-08-07T15:24:01.753Z,31.46
2018-08-07T15:34:01.436Z,30.98
2018-08-07T15:45:01.838Z,31.55
2018-08-07T15:50:01.694Z,31.78
2018-08-07T16:00:01.889Z,33.25
2018-08-07T16:05:01.644Z,33.25
2018-08-07T16:10:01.736Z,34.31
2018-08-07T16:15:01.773Z,34.31
2018-08-07T16:20:01.691Z,35.05
2018-08-07T16:25:01.610Z,35.05
2018-08-07T16:30:02.026Z,36.98
2018-08-07T16:35:01.728Z,36.98
2018-08-07T16:40:01.567Z,38.50
2018-08-07T16:45:01.703Z,38.50
2018-08-07T16:50:01.698Z,39.78
2018-08-07T16:55:01.704Z,39.78
2018-08-07T17:00:01.793Z,41.48
2018-08-07T17:05:01.757Z,41.48
2018-08-07T17:10:01.690Z,42.96
2018-08-07T17:15:01.731Z,42.96
2018-08-07T17:20:01.668Z,43.38
2018-08-07T17:25:03.473Z,43.38
2018-08-07T17:30:01.798Z,44.56
2018-08-07T17:40:01.764Z,44.69
2018-08-07T17:45:01.673Z,44.69
2018-08-07T17:55:01.682Z,45.15
2018-08-07T18:00:01.719Z,46.85
2018-08-07T18:05:01.697Z,46.85
2018-08-07T18:10:01.761Z,47.60
2018-08-07T18:15:01.713Z,47.60
2018-08-07T18:20:01.687Z,48.63
2018-08-07T18:25:01.810Z,48.63
2018-08-07T18:30:01.722Z,49.62
2018-08-07T18:35:01.695Z,49.62
2018-08-07T18:40:01.782Z,51.08
2018-08-07T18:45:01.702Z,51.08
2018-08-07T18:50:01.753Z,52.57
2018-08-07T18:55:01.756Z,52.57
2018-08-07T19:00:01.714Z,53.58
2018-08-07T19:05:01.750Z,53.58
2018-08-07T19:10:01.681Z,54.15
2018-08-07T19:15:01.703Z,54.15
2018-08-07T19:20:01.702Z,54.67
2018-08-07T19:25:01.716Z,54.67
2018-08-07T19:30:01.707Z,56.06
2018-08-07T19:35:01.677Z,56.06
2018-08-07T19:40:01.696Z,56.28
2018-08-07T19:45:01.746Z,56.28
2018-08-07T19:50:01.825Z,57.33
2018-08-07T19:55:01.754Z,57.33
2018-08-07T20:00:01.776Z,57.46
2018-08-07T20:05:01.757Z,57.46
2018-08-07T20:10:01.701Z,58.58
2018-08-07T20:15:01.742Z,58.58
2018-08-07T20:20:01.702Z,59.21
2018-08-07T20:25:01.738Z,59.21
2018-08-07T20:30:01.740Z,59.55
2018-08-07T20:35:01.552Z,59.55
2018-08-07T20:40:01.628Z,59.62
2018-08-07T20:45:01.556Z,59.62
2018-08-07T20:50:01.749Z,59.69
2018-08-07T21:01:02.575Z,60.77
2018-08-07T21:11:01.644Z,62.67
2018-08-07T21:16:01.546Z,62.67
2018-08-07T21:21:01.622Z,65.06
2018-08-07T21:26:01.756Z,65.06
2018-08-07T21:31:01.679Z,66.06
2018-08-07T21:41:01.611Z,65.54
2018-08-07T21:51:01.623Z,66.64
2018-08-07T21:56:01.544Z,66.64
2018-08-07T22:01:01.640Z,68.89
2018-08-07T22:06:01.541Z,68.89
2018-08-07T22:11:01.741Z,69.41
2018-08-07T22:16:01.560Z,69.41
2018-08-07T22:21:01.681Z,71.15
2018-08-07T22:26:01.579Z,71.15
2018-08-07T22:31:01.663Z,71.68
2018-08-07T22:41:01.597Z,73.47
2018-08-07T22:51:01.669Z,74.25
2018-08-07T23:06:01.563Z,75.24
2018-08-07T23:21:01.604Z,78.79
2018-08-07T23:36:01.658Z,78.24
2018-08-07T23:41:01.598Z,78.95
2018-08-07T23:56:01.621Z,79.90
